Time;durP1;ratioP1;P1;durP2;ratioP2;P2;SDS_P1;SDS_P2;PMS_P1;PMS_P2;Temp;Humidity;BMP_temperature;BMP_pressure;BME280_temperature;BME280_humidity;BME280_pressure;Samples;Min_cycle;Max_cycle;Signal;HPM_P1;HPM_P2
2023/10/22 00:00:17;;;;;;;0.10;0.10;;;;;;;14.33;80.71;99507.38;5080911;28;20028;-83
2023/10/22 00:02:43;;;;;;;0.10;0.10;;;;;;;14.26;80.83;99496.22;5076952;28;20087;-82
2023/10/22 00:05:09;;;;;;;0.10;0.10;;;;;;;14.27;80.70;99513.06;5080401;28;20023;-80
2023/10/22 00:07:36;;;;;;;0.17;0.17;;;;;;;14.29;80.68;99517.34;5078652;28;20494;-80
2023/10/22 00:10:02;;;;;;;0.40;0.40;;;;;;;14.30;80.41;99513.75;5076724;28;20123;-80
2023/10/22 00:12:31;;;;;;;0.43;0.43;;;;;;;14.34;80.33;99515.31;5073340;28;20033;-80
2023/10/22 00:14:57;;;;;;;0.15;0.15;;;;;;;14.35;80.09;99521.50;5086244;28;20123;-80
2023/10/22 00:17:23;;;;;;;0.10;0.10;;;;;;;14.35;79.95;99513.50;5087382;28;20042;-79
2023/10/22 00:19:49;;;;;;;0.10;0.10;;;;;;;14.34;79.76;99520.66;5074720;28;20076;-79
2023/10/22 00:22:16;;;;;;;0.10;0.10;;;;;;;14.35;79.55;99518.81;5080266;28;20114;-79
2023/10/22 00:24:43;;;;;;;0.10;0.10;;;;;;;14.32;79.44;99532.34;5079194;28;20044;-79
2023/10/22 00:27:10;;;;;;;0.10;0.10;;;;;;;14.30;79.32;99539.56;5072635;28;20063;-79
2023/10/22 00:29:36;;;;;;;0.10;0.10;;;;;;;14.37;79.04;99538.25;5077951;28;20033;-79
2023/10/22 00:32:02;;;;;;;0.10;0.10;;;;;;;14.37;78.81;99525.78;5081662;28;20051;-80
2023/10/22 00:34:28;;;;;;;0.10;0.10;;;;;;;14.42;78.69;99538.84;5077496;28;20056;-81
2023/10/22 00:36:54;;;;;;;0.10;0.10;;;;;;;14.31;78.86;99562.59;5083362;28;20029;-80
2023/10/22 00:39:21;;;;;;;0.20;0.20;;;;;;;14.42;78.88;99546.84;5077096;28;20017;-82
2023/10/22 00:41:47;;;;;;;0.68;0.68;;;;;;;14.40;79.00;99554.94;5085698;28;20032;-81
2023/10/22 00:44:13;;;;;;;0.10;0.10;;;;;;;14.36;79.31;99561.38;5077700;28;20052;-83
2023/10/22 00:46:40;;;;;;;0.10;0.10;;;;;;;14.38;79.23;99553.28;5090718;28;20495;-83
2023/10/22 00:49:07;;;;;;;0.10;0.10;;;;;;;14.31;79.51;99570.59;5087566;28;20507;-82
2023/10/22 00:51:34;;;;;;;0.10;0.10;;;;;;;14.32;79.36;99564.31;5080874;28;20029;-84
2023/10/22 00:54:00;;;;;;;0.10;0.10;;;;;;;14.32;79.54;99570.50;5075621;28;20472;-83
2023/10/22 00:56:27;;;;;;;0.10;0.10;;;;;;;14.40;79.34;99578.91;5076558;28;20493;-82
2023/10/22 00:58:53;;;;;;;0.10;0.10;;;;;;;14.37;79.33;99583.56;5073516;28;20025;-82
2023/10/22 01:01:21;;;;;;;0.10;0.10;;;;;;;14.34;79.46;99581.06;5079592;28;20108;-82
2023/10/22 01:03:47;;;;;;;0.10;0.10;;;;;;;14.39;79.50;99581.66;5074785;28;20165;-81
2023/10/22 01:06:14;;;;;;;0.10;0.10;;;;;;;14.37;79.25;99588.88;5083880;28;20444;-82
2023/10/22 01:08:41;;;;;;;0.10;0.10;;;;;;;14.43;79.36;99585.00;5082896;28;20033;-82
2023/10/22 01:11:09;;;;;;;0.20;0.20;;;;;;;14.35;79.75;99599.59;5086099;28;20027;-82
2023/10/22 01:13:36;;;;;;;0.20;0.20;;;;;;;14.32;79.80;99596.28;5091828;28;20040;-81
2023/10/22 01:16:03;;;;;;;0.10;0.10;;;;;;;14.37;79.78;99607.53;5072086;28;20038;-81
2023/10/22 01:18:29;;;;;;;0.10;0.10;;;;;;;14.42;79.81;99604.59;5075808;28;20028;-82
2023/10/22 01:20:55;;;;;;;0.10;0.10;;;;;;;14.39;79.83;99603.84;5087584;28;20043;-82
2023/10/22 01:23:23;;;;;;;0.10;0.10;;;;;;;14.39;80.03;99613.63;5086315;28;20043;-82
2023/10/22 01:25:50;;;;;;;0.10;0.10;;;;;;;14.37;80.48;99620.88;5079768;28;20431;-81
2023/10/22 01:28:17;;;;;;;0.10;0.10;;;;;;;14.36;80.47;99617.31;5084899;28;20024;-80
2023/10/22 01:30:43;;;;;;;0.10;0.10;;;;;;;14.42;80.38;99623.25;5077994;28;20021;-81
2023/10/22 01:33:09;;;;;;;0.10;0.10;;;;;;;14.40;80.81;99637.53;5092714;28;20028;-82
2023/10/22 01:35:35;;;;;;;0.10;0.10;;;;;;;14.37;81.15;99636.84;5086272;28;20024;-82
2023/10/22 01:38:01;;;;;;;0.10;0.10;;;;;;;14.31;81.83;99650.50;5082336;28;20037;-82
2023/10/22 01:40:27;;;;;;;0.10;0.10;;;;;;;14.45;80.80;99655.91;5082473;28;20036;-81
2023/10/22 01:42:54;;;;;;;0.10;0.10;;;;;;;14.37;81.89;99655.50;5080695;28;20110;-79
2023/10/22 01:45:20;;;;;;;0.10;0.10;;;;;;;14.32;82.43;99655.75;5088081;28;20107;-81
2023/10/22 01:47:47;;;;;;;0.10;0.10;;;;;;;14.41;82.34;99649.06;5081421;28;20024;-82
2023/10/22 01:50:13;;;;;;;0.10;0.10;;;;;;;14.43;82.17;99662.28;5092786;28;20028;-81
2023/10/22 01:52:39;;;;;;;0.10;0.10;;;;;;;14.49;82.29;99662.81;5079600;28;20025;-80
2023/10/22 01:55:06;;;;;;;0.10;0.10;;;;;;;14.52;82.31;99653.78;5088062;28;20028;-83
2023/10/22 01:57:33;;;;;;;0.00;0.00;;;;;;;14.55;82.74;99661.59;5081992;28;20028;-82
2023/10/22 01:59:59;;;;;;;0.10;0.10;;;;;;;14.60;82.85;99664.03;5090949;28;20491;-81
2023/10/22 02:02:26;;;;;;;0.10;0.10;;;;;;;14.51;83.73;99676.91;5072862;28;20411;-80
2023/10/22 02:04:52;;;;;;;0.10;0.10;;;;;;;14.53;84.15;99675.03;5074837;28;20031;-80
2023/10/22 02:07:18;;;;;;;0.10;0.10;;;;;;;14.57;84.86;99683.72;5071909;28;20499;-81
2023/10/22 02:09:45;;;;;;;0.10;0.10;;;;;;;14.67;84.27;99692.94;5076441;28;20390;-81
2023/10/22 02:12:11;;;;;;;0.17;0.17;;;;;;;14.68;84.58;99712.50;5069449;28;20391;-82
2023/10/22 02:14:37;;;;;;;0.10;0.10;;;;;;;14.60;84.55;99723.53;5078165;28;20059;-81
2023/10/22 02:17:04;;;;;;;0.10;0.10;;;;;;;14.63;84.73;99728.69;5089883;28;20059;-81
2023/10/22 02:19:30;;;;;;;0.10;0.10;;;;;;;14.66;84.33;99746.38;5080155;28;20021;-82
2023/10/22 02:21:56;;;;;;;0.10;0.10;;;;;;;14.70;83.86;99747.91;5076649;28;20040;-82
2023/10/22 02:24:22;;;;;;;0.10;0.10;;;;;;;14.55;83.88;99758.44;5078728;28;20032;-82
2023/10/22 02:26:48;;;;;;;0.20;0.20;;;;;;;14.53;83.46;99768.31;5078317;28;20114;-82
2023/10/22 02:29:15;;;;;;;0.10;0.10;;;;;;;14.47;83.03;99800.63;5072010;28;20028;-81
2023/10/22 02:31:42;;;;;;;0.30;0.30;;;;;;;14.38;83.58;99793.97;5073559;28;20029;-82
2023/10/22 02:34:09;;;;;;;0.10;0.10;;;;;;;14.53;82.99;99797.63;5078674;28;20090;-82
2023/10/22 02:36:36;;;;;;;0.08;0.08;;;;;;;14.55;82.71;99806.44;5076706;28;20024;-81
2023/10/22 02:39:04;;;;;;;0.10;0.10;;;;;;;14.59;82.19;99811.56;5071929;28;20121;-81
2023/10/22 02:41:31;;;;;;;0.03;0.03;;;;;;;14.56;82.19;99817.94;5073100;28;20040;-81
2023/10/22 02:43:58;;;;;;;0.10;0.10;;;;;;;14.38;82.89;99828.63;5083340;28;20071;-82
2023/10/22 02:46:24;;;;;;;0.10;0.10;;;;;;;14.51;82.55;99834.16;5075274;28;20040;-82
2023/10/22 02:48:50;;;;;;;0.10;0.10;;;;;;;14.40;82.71;99841.84;5089342;28;20120;-80
2023/10/22 02:51:17;;;;;;;0.45;0.45;;;;;;;14.47;82.39;99858.41;5086496;28;20028;-83
2023/10/22 02:53:43;;;;;;;0.10;0.10;;;;;;;14.50;81.85;99875.06;5078749;28;20033;-81
2023/10/22 02:56:09;;;;;;;0.10;0.10;;;;;;;14.36;82.51;99881.13;5079407;28;20086;-83
2023/10/22 02:58:38;;;;;;;0.10;0.10;;;;;;;14.20;82.79;99918.34;5073263;28;20025;-82
2023/10/22 03:01:07;;;;;;;0.13;0.13;;;;;;;14.11;82.11;99924.13;5075208;28;20032;-82
2023/10/22 03:03:38;;;;;;;0.10;0.10;;;;;;;14.02;82.16;99924.59;5073443;28;20116;-82
2023/10/22 03:06:08;;;;;;;1.60;1.23;;;;;;;14.07;81.93;99928.75;5069003;28;20525;-82
2023/10/22 03:08:35;;;;;;;0.20;0.20;;;;;;;14.01;81.71;99939.69;5078911;28;20565;-83
2023/10/22 03:11:02;;;;;;;0.10;0.10;;;;;;;13.77;82.45;99946.22;5079820;28;20091;-83
2023/10/22 03:13:29;;;;;;;0.10;0.10;;;;;;;13.81;82.29;99953.13;5075814;28;20033;-83
2023/10/22 03:15:57;;;;;;;0.10;0.10;;;;;;;13.80;82.06;99954.91;5085869;28;20085;-82
2023/10/22 03:18:24;;;;;;;0.10;0.10;;;;;;;13.85;81.63;99960.88;5072865;28;20020;-82
2023/10/22 03:20:50;;;;;;;0.10;0.10;;;;;;;13.84;81.64;99969.78;5079413;28;20041;-82
2023/10/22 03:23:17;;;;;;;0.10;0.10;;;;;;;13.56;82.14;99968.44;5072684;28;20028;-82
2023/10/22 03:25:43;;;;;;;0.10;0.10;;;;;;;13.64;82.12;99988.53;5072473;28;20040;-81
2023/10/22 03:28:10;;;;;;;0.10;0.10;;;;;;;13.63;81.68;99992.13;5076141;28;20035;-81
2023/10/22 03:30:38;;;;;;;0.30;0.30;;;;;;;13.52;81.95;99996.16;5065685;28;20051;-81
2023/10/22 03:33:04;;;;;;;0.10;0.10;;;;;;;13.48;81.23;100002.53;5069184;28;20111;-82
2023/10/22 03:35:31;;;;;;;0.10;0.10;;;;;;;13.47;81.44;99999.94;5071450;28;20016;-83
2023/10/22 03:37:59;;;;;;;0.10;0.10;;;;;;;13.42;81.64;100006.34;5078706;28;20078;-83
2023/10/22 03:40:27;;;;;;;0.70;0.38;;;;;;;13.36;81.66;100013.72;5078073;28;20032;-86
2023/10/22 03:42:54;;;;;;;0.10;0.10;;;;;;;13.32;81.46;100020.09;5080481;28;20024;-88
2023/10/22 03:45:23;;;;;;;1.17;0.90;;;;;;;13.34;81.54;100023.56;5074392;28;20119;-88
2023/10/22 03:47:49;;;;;;;0.10;0.10;;;;;;;13.41;81.29;100027.69;5078735;28;20025;-85
2023/10/22 03:50:15;;;;;;;0.20;0.20;;;;;;;13.33;80.98;100029.81;5085643;28;20035;-84
2023/10/22 03:52:41;;;;;;;0.10;0.10;;;;;;;13.40;80.96;100049.91;5079931;28;20032;-84
2023/10/22 03:55:07;;;;;;;0.10;0.10;;;;;;;13.30;81.42;100048.56;5080390;28;20038;-84
2023/10/22 03:57:33;;;;;;;0.10;0.10;;;;;;;13.34;80.78;100060.81;5079832;28;20518;-85
2023/10/22 03:59:59;;;;;;;0.65;0.65;;;;;;;13.39;80.45;100065.00;5072571;28;20562;-84
2023/10/22 04:02:25;;;;;;;0.32;0.32;;;;;;;13.36;80.71;100070.44;5082609;28;20036;-85
2023/10/22 04:04:52;;;;;;;0.10;0.10;;;;;;;13.46;80.45;100076.25;5078441;28;20398;-85
2023/10/22 04:07:18;;;;;;;0.10;0.10;;;;;;;13.43;80.40;100079.91;5085942;28;20032;-85
2023/10/22 04:09:44;;;;;;;3.92;2.55;;;;;;;13.48;80.04;100085.00;5087641;28;20024;-85
2023/10/22 04:12:10;;;;;;;0.10;0.10;;;;;;;13.45;80.10;100095.81;5098129;28;20028;-86
2023/10/22 04:14:36;;;;;;;0.10;0.10;;;;;;;13.48;80.14;100103.66;5096047;28;20526;-84
2023/10/22 04:17:03;;;;;;;0.10;0.10;;;;;;;13.51;79.84;100100.88;5085663;28;20029;-85
2023/10/22 04:19:29;;;;;;;0.10;0.10;;;;;;;13.40;79.79;100103.13;5073381;28;20065;-85
2023/10/22 04:21:55;;;;;;;0.10;0.10;;;;;;;13.43;79.84;100114.50;5076329;28;20043;-85
2023/10/22 04:24:21;;;;;;;0.10;0.10;;;;;;;13.48;79.58;100121.41;5069980;28;20125;-86
2023/10/22 04:26:47;;;;;;;0.52;0.43;;;;;;;13.53;79.31;100124.75;5080569;28;20050;-85
2023/10/22 04:29:13;;;;;;;0.10;0.10;;;;;;;13.55;79.30;100138.84;5077756;28;20093;-86
2023/10/22 04:31:39;;;;;;;0.73;0.73;;;;;;;13.50;79.41;100144.38;5086070;28;20102;-85
2023/10/22 04:34:06;;;;;;;0.10;0.10;;;;;;;13.52;79.51;100142.53;5077674;28;20039;-85
2023/10/22 04:36:32;;;;;;;0.10;0.10;;;;;;;13.56;79.53;100146.78;5078291;28;20460;-85
2023/10/22 04:38:58;;;;;;;0.10;0.10;;;;;;;13.41;80.09;100147.44;5077487;28;20529;-83
2023/10/22 04:41:25;;;;;;;0.10;0.10;;;;;;;13.42;79.96;100151.81;5082389;28;20041;-82
2023/10/22 04:43:51;;;;;;;0.10;0.10;;;;;;;13.40;79.72;100151.03;5083228;28;20487;-84
2023/10/22 04:46:17;;;;;;;0.10;0.10;;;;;;;13.41;80.01;100153.63;5086289;28;20021;-84
2023/10/22 04:48:44;;;;;;;1.13;1.13;;;;;;;13.40;80.07;100151.03;5080748;28;20113;-85
2023/10/22 04:51:11;;;;;;;0.10;0.10;;;;;;;13.37;80.15;100153.78;5086840;28;20058;-84
2023/10/22 04:53:37;;;;;;;0.20;0.20;;;;;;;13.43;79.87;100162.41;5077342;28;20071;-84
2023/10/22 04:56:04;;;;;;;0.10;0.10;;;;;;;13.31;80.47;100167.34;5090656;28;20039;-83
2023/10/22 04:58:32;;;;;;;0.10;0.10;;;;;;;13.38;80.13;100166.19;5101540;28;20087;-83
2023/10/22 05:00:59;;;;;;;0.10;0.10;;;;;;;13.39;80.18;100181.22;5093576;28;20083;-85
2023/10/22 05:03:25;;;;;;;0.40;0.40;;;;;;;13.38;80.28;100184.81;5080273;28;20032;-85
2023/10/22 05:05:51;;;;;;;0.10;0.10;;;;;;;13.31;80.68;100188.63;5080684;28;20039;-84
2023/10/22 05:08:17;;;;;;;0.10;0.10;;;;;;;13.39;80.46;100189.22;5084722;28;20020;-85
2023/10/22 05:10:43;;;;;;;0.10;0.10;;;;;;;13.33;80.57;100192.09;5081881;28;20029;-84
2023/10/22 05:13:10;;;;;;;0.10;0.10;;;;;;;13.32;80.64;100193.91;5077320;28;20497;-83
2023/10/22 05:15:36;;;;;;;0.10;0.10;;;;;;;13.38;80.05;100195.44;5079693;28;20029;-84
2023/10/22 05:18:07;;;;;;;0.32;0.32;;;;;;;13.31;80.35;100196.59;5071707;28;20032;-84
2023/10/22 05:20:34;;;;;;;0.10;0.10;;;;;;;13.27;80.39;100199.41;5082797;28;20028;-85
2023/10/22 05:23:03;;;;;;;0.35;0.35;;;;;;;13.32;80.00;100204.53;5073551;28;20068;-85
2023/10/22 05:25:29;;;;;;;0.10;0.10;;;;;;;13.30;79.73;100208.19;5085318;28;20626;-86
2023/10/22 05:27:55;;;;;;;0.10;0.10;;;;;;;13.25;79.80;100214.56;5076724;28;20658;-86
2023/10/22 05:30:21;;;;;;;0.10;0.10;;;;;;;13.23;79.86;100211.13;5075384;28;20509;-85
2023/10/22 05:32:47;;;;;;;0.10;0.10;;;;;;;13.22;79.85;100225.34;5081940;28;20036;-86
2023/10/22 05:35:13;;;;;;;0.20;0.20;;;;;;;13.29;79.88;100238.38;5080215;28;20100;-84
2023/10/22 05:37:44;;;;;;;0.10;0.10;;;;;;;13.36;79.27;100237.22;5079203;28;20032;-84
2023/10/22 05:40:11;;;;;;;0.10;0.10;;;;;;;13.27;79.38;100239.31;5078254;28;20048;-83
2023/10/22 05:42:38;;;;;;;0.10;0.10;;;;;;;13.33;79.86;100246.16;5075863;28;20064;-84
2023/10/22 05:45:04;;;;;;;0.10;0.10;;;;;;;13.30;79.57;100256.09;5081575;28;20040;-83
2023/10/22 05:47:32;;;;;;;0.20;0.20;;;;;;;13.27;79.74;100252.63;5075219;28;20038;-83
2023/10/22 05:49:59;;;;;;;0.10;0.10;;;;;;;13.31;79.73;100258.69;5083527;28;20020;-83
2023/10/22 05:52:26;;;;;;;0.10;0.10;;;;;;;13.31;79.60;100268.44;5080180;28;20025;-84
2023/10/22 05:54:53;;;;;;;0.10;0.10;;;;;;;13.30;79.72;100272.06;5080206;28;20024;-85
2023/10/22 05:57:21;;;;;;;0.40;0.40;;;;;;;13.36;79.69;100266.47;5080895;28;20052;-84
2023/10/22 05:59:47;;;;;;;0.20;0.20;;;;;;;13.32;79.70;100276.38;5086245;28;20028;-85
2023/10/22 06:02:13;;;;;;;0.65;0.65;;;;;;;13.39;79.48;100271.69;5079206;28;20434;-85
2023/10/22 06:04:39;;;;;;;0.10;0.10;;;;;;;13.42;79.46;100290.19;5069053;28;20037;-86
2023/10/22 06:07:07;;;;;;;0.20;0.20;;;;;;;13.36;79.73;100291.28;5084081;28;20536;-85
2023/10/22 06:09:35;;;;;;;0.10;0.10;;;;;;;13.42;80.14;100306.16;5072217;28;20077;-85
2023/10/22 06:12:02;;;;;;;0.10;0.10;;;;;;;13.45;80.04;100313.16;5085377;28;20029;-85
2023/10/22 06:14:28;;;;;;;0.20;0.20;;;;;;;13.41;79.93;100309.75;5068972;28;20032;-85
2023/10/22 06:16:54;;;;;;;0.10;0.10;;;;;;;13.40;80.03;100305.38;5081468;28;20027;-86
2023/10/22 06:19:22;;;;;;;0.15;0.15;;;;;;;13.44;80.19;100309.63;5081713;28;20073;-86
2023/10/22 06:21:49;;;;;;;0.40;0.40;;;;;;;13.42;79.97;100311.47;5075631;28;20040;-85
2023/10/22 06:24:16;;;;;;;0.10;0.10;;;;;;;13.39;80.11;100324.91;5074012;28;20106;-84
2023/10/22 06:26:45;;;;;;;0.10;0.10;;;;;;;13.44;80.11;100320.28;5080798;28;20030;-84
2023/10/22 06:29:14;;;;;;;0.10;0.10;;;;;;;13.40;79.81;100331.97;5074542;28;20017;-85
2023/10/22 06:31:40;;;;;;;0.10;0.10;;;;;;;13.43;80.03;100339.81;5080231;28;20051;-85
2023/10/22 06:34:06;;;;;;;0.20;0.20;;;;;;;13.41;79.89;100337.22;5069462;28;20089;-85
2023/10/22 06:36:32;;;;;;;0.10;0.10;;;;;;;13.43;79.74;100340.72;5071773;28;20030;-85
2023/10/22 06:38:59;;;;;;;0.10;0.10;;;;;;;13.32;79.77;100350.88;5082072;28;20085;-86
2023/10/22 06:41:25;;;;;;;0.20;0.20;;;;;;;13.33;79.49;100351.72;5090726;28;20046;-85
2023/10/22 06:43:52;;;;;;;0.35;0.35;;;;;;;13.33;79.38;100362.38;5092434;28;20573;-84
2023/10/22 06:46:19;;;;;;;0.10;0.10;;;;;;;13.29;79.04;100364.28;5083761;28;20028;-84
2023/10/22 06:48:45;;;;;;;0.10;0.10;;;;;;;13.27;78.79;100382.97;5080137;28;20028;-85
2023/10/22 06:51:16;;;;;;;0.10;0.10;;;;;;;13.24;79.23;100391.06;5084287;28;20025;-86
2023/10/22 06:53:46;;;;;;;0.20;0.20;;;;;;;13.23;79.34;100399.09;5088291;28;20040;-86
2023/10/22 06:56:12;;;;;;;0.10;0.10;;;;;;;13.15;79.37;100394.09;5084893;28;20711;-86
2023/10/22 06:58:39;;;;;;;0.10;0.10;;;;;;;13.17;79.15;100405.53;5075500;28;20024;-83
2023/10/22 07:01:17;;;;;;;0.30;0.30;;;;;;;13.19;79.27;100403.66;5081550;28;20027;-85
2023/10/22 07:03:45;;;;;;;0.20;0.20;;;;;;;13.16;78.97;100413.56;5076295;28;20494;-85
2023/10/22 07:06:14;;;;;;;0.50;0.50;;;;;;;13.11;79.29;100421.72;5093756;28;20035;-85
2023/10/22 07:08:47;;;;;;;0.40;0.40;;;;;;;13.13;79.33;100414.53;5100972;28;20012;-86
2023/10/22 07:11:13;;;;;;;;;;;;;;;13.27;78.82;100416.69;5082072;28;20032;-86
2023/10/22 07:13:39;;;;;;;0.10;0.10;;;;;;;13.05;79.58;100429.94;5074470;28;19916;-84
2023/10/22 07:16:06;;;;;;;0.45;0.40;;;;;;;13.14;79.47;100429.59;5105951;28;20398;-86
2023/10/22 07:18:32;;;;;;;0.10;0.10;;;;;;;13.08;79.63;100443.09;5090146;28;20021;-85
2023/10/22 07:21:00;;;;;;;0.10;0.10;;;;;;;13.10;79.10;100441.28;5092781;28;20430;-85
2023/10/22 07:23:31;;;;;;;0.10;0.10;;;;;;;13.15;79.14;100447.28;5086720;28;20028;-84
2023/10/22 07:26:00;;;;;;;0.10;0.10;;;;;;;13.09;79.30;100455.50;5089899;28;20078;-84
2023/10/22 07:28:26;;;;;;;3.40;0.73;;;;;;;13.12;78.94;100455.34;5073833;28;20052;-84
2023/10/22 07:30:53;;;;;;;0.10;0.10;;;;;;;13.09;79.23;100459.00;5089027;28;20021;-85
2023/10/22 07:33:19;;;;;;;1.20;1.10;;;;;;;13.07;79.03;100462.66;5081593;28;20039;-85
2023/10/22 07:35:54;;;;;;;0.28;0.28;;;;;;;13.09;78.76;100471.44;5075865;28;20034;-84
2023/10/22 07:38:20;;;;;;;0.10;0.10;;;;;;;13.05;78.96;100475.16;5077764;28;20064;-85
2023/10/22 07:40:47;;;;;;;0.10;0.10;;;;;;;13.02;78.87;100485.88;5084873;28;20040;-84
2023/10/22 07:43:14;;;;;;;0.20;0.20;;;;;;;13.07;79.01;100483.91;5083374;28;20030;-84
2023/10/22 07:45:40;;;;;;;0.10;0.10;;;;;;;13.02;79.18;100494.75;5079578;28;20474;-85
2023/10/22 07:48:06;;;;;;;0.43;0.43;;;;;;;13.10;79.18;100497.13;5071289;28;20582;-87
2023/10/22 07:50:32;;;;;;;0.10;0.10;;;;;;;13.10;79.22;100505.09;5072667;28;20033;-85
2023/10/22 07:52:58;;;;;;;0.20;0.20;;;;;;;13.13;79.54;100506.78;5075801;28;20048;-85
2023/10/22 07:55:24;;;;;;;0.10;0.10;;;;;;;13.19;79.44;100512.75;5072106;28;20081;-84
2023/10/22 07:57:50;;;;;;;0.10;0.10;;;;;;;13.22;79.36;100509.97;5073528;28;20033;-86
2023/10/22 08:00:17;;;;;;;0.10;0.10;;;;;;;13.29;79.18;100515.09;5070303;28;20020;-84
2023/10/22 08:02:43;;;;;;;0.35;0.17;;;;;;;13.33;79.24;100514.88;5075225;28;20046;-84
2023/10/22 08:05:10;;;;;;;0.13;0.13;;;;;;;13.42;79.18;100522.59;5074433;28;20033;-87
2023/10/22 08:07:36;;;;;;;0.22;0.22;;;;;;;13.42;78.98;100517.25;5071651;28;20553;-87
2023/10/22 08:10:02;;;;;;;0.10;0.10;;;;;;;13.45;78.86;100521.59;5076186;28;20478;-87
2023/10/22 08:12:29;;;;;;;0.10;0.10;;;;;;;13.52;78.79;100527.56;5075200;28;20024;-86
2023/10/22 08:14:55;;;;;;;0.22;0.22;;;;;;;13.57;79.01;100509.59;5069992;28;20475;-86
2023/10/22 08:17:21;;;;;;;0.10;0.10;;;;;;;13.54;79.12;100523.91;5090861;28;20039;-85
2023/10/22 08:19:47;;;;;;;0.10;0.10;;;;;;;13.55;78.49;100530.97;5089909;28;20063;-86
2023/10/22 08:22:13;;;;;;;0.10;0.10;;;;;;;13.58;78.45;100538.84;5079389;28;20029;-86
2023/10/22 08:24:39;;;;;;;0.15;0.15;;;;;;;13.67;78.13;100526.09;5082648;28;20028;-86
2023/10/22 08:27:05;;;;;;;0.10;0.10;;;;;;;13.71;78.06;100531.25;5082364;28;20112;-85
2023/10/22 08:29:32;;;;;;;0.10;0.10;;;;;;;13.73;77.90;100534.75;5076813;28;20025;-86
2023/10/22 08:31:58;;;;;;;0.10;0.10;;;;;;;13.75;77.75;100529.34;5075864;28;20453;-86
2023/10/22 08:34:24;;;;;;;0.20;0.20;;;;;;;13.79;77.75;100536.28;5075078;28;20441;-86
2023/10/22 08:36:51;;;;;;;0.10;0.10;;;;;;;13.85;77.73;100533.41;5070936;28;20031;-86
2023/10/22 08:39:17;;;;;;;0.10;0.10;;;;;;;13.92;77.58;100542.03;5074114;28;20104;-86
2023/10/22 08:41:50;;;;;;;0.10;0.10;;;;;;;14.02;78.27;100551.38;5076714;28;20052;-86
2023/10/22 08:44:16;;;;;;;0.13;0.13;;;;;;;14.12;78.34;100557.22;5069681;28;20440;-86
2023/10/22 08:46:43;;;;;;;0.10;0.10;;;;;;;14.24;78.31;100559.41;5071958;28;20043;-87
2023/10/22 08:49:12;;;;;;;0.10;0.10;;;;;;;14.34;78.13;100561.69;5076070;28;20032;-86
2023/10/22 08:51:39;;;;;;;0.10;0.10;;;;;;;14.43;77.70;100558.66;5072362;28;20086;-88
2023/10/22 08:54:05;;;;;;;0.10;0.10;;;;;;;14.51;77.50;100556.53;5094243;28;20035;-83
2023/10/22 08:56:32;;;;;;;0.10;0.10;;;;;;;14.51;77.21;100561.00;5088027;28;20368;-83
2023/10/22 08:59:02;;;;;;;0.10;0.10;;;;;;;14.59;76.84;100560.69;5090527;28;20035;-84
2023/10/22 09:01:28;;;;;;;0.10;0.10;;;;;;;14.53;76.54;100560.03;5080142;28;20146;-85
2023/10/22 09:03:55;;;;;;;0.10;0.10;;;;;;;14.64;76.75;100561.38;5076630;28;20040;-88
2023/10/22 09:06:22;;;;;;;0.10;0.10;;;;;;;14.67;76.75;100566.63;5079028;28;20088;-84
2023/10/22 09:08:48;;;;;;;0.25;0.25;;;;;;;14.66;76.45;100576.41;5073495;28;20029;-85
2023/10/22 09:11:16;;;;;;;0.10;0.10;;;;;;;14.76;76.02;100582.22;5077885;28;20024;-86
2023/10/22 09:13:44;;;;;;;0.10;0.10;;;;;;;14.76;75.49;100582.22;5080634;28;20025;-86
2023/10/22 09:16:10;;;;;;;0.10;0.10;;;;;;;14.67;74.62;100604.81;5090132;28;20017;-87
2023/10/22 09:18:44;;;;;;;0.03;0.03;;;;;;;14.78;74.74;100591.03;5087240;28;20098;-86
2023/10/22 09:21:11;;;;;;;0.17;0.17;;;;;;;14.75;74.42;100599.16;5091391;28;20028;-83
2023/10/22 09:23:37;;;;;;;0.10;0.10;;;;;;;14.68;74.15;100601.22;5090300;28;20024;-82
2023/10/22 09:26:03;;;;;;;0.10;0.10;;;;;;;14.77;74.74;100597.31;5080841;28;20452;-85
2023/10/22 09:28:30;;;;;;;0.20;0.20;;;;;;;14.72;74.62;100607.28;5077713;28;20024;-83
2023/10/22 09:31:00;;;;;;;0.20;0.20;;;;;;;14.83;74.07;100604.19;5085248;28;20028;-80
2023/10/22 09:36:11;;;;;;;0.30;0.30;;;;;;;15.01;73.86;100619.41;5098801;27;20400;-82
2023/10/22 09:38:47;;;;;;;0.13;0.13;;;;;;;15.09;73.58;100613.75;5101755;28;20032;-81
2023/10/22 09:41:29;;;;;;;2.47;0.93;;;;;;;14.89;72.90;100614.56;5099917;28;20031;-81
2023/10/22 09:43:58;;;;;;;0.10;0.10;;;;;;;15.03;73.07;100625.56;5103389;28;20010;-81
2023/10/22 09:46:30;;;;;;;0.10;0.10;;;;;;;15.23;72.46;100620.28;5097084;28;20515;-81
2023/10/22 09:48:59;;;;;;;0.47;0.47;;;;;;;15.40;72.29;100616.91;5100104;28;20036;-80
2023/10/22 09:51:31;;;;;;;0.20;0.20;;;;;;;15.63;72.15;100618.56;5098508;28;20009;-80
2023/10/22 09:54:02;;;;;;;0.10;0.10;;;;;;;15.63;70.09;100638.09;5098399;28;20017;-80
2023/10/22 09:56:32;;;;;;;0.10;0.10;;;;;;;15.80;69.15;100639.16;5097138;28;20036;-81
2023/10/22 09:59:02;;;;;;;0.10;0.10;;;;;;;15.69;69.20;100640.50;5099841;28;20025;-81
2023/10/22 10:01:31;;;;;;;0.13;0.13;;;;;;;15.56;69.10;100638.44;5092864;28;20036;-80
2023/10/22 10:03:59;;;;;;;0.10;0.10;;;;;;;15.65;69.74;100640.69;5097116;28;20044;-81
2023/10/22 10:06:27;;;;;;;0.35;0.35;;;;;;;15.55;70.00;100642.06;5095905;28;20025;-81
2023/10/22 10:08:54;;;;;;;0.10;0.10;;;;;;;15.48;70.20;100642.31;5099344;28;20016;-81
2023/10/22 10:11:21;;;;;;;0.57;0.57;;;;;;;15.64;70.49;100650.53;5101149;28;20012;-82
2023/10/22 10:13:48;;;;;;;0.10;0.10;;;;;;;15.78;70.48;100657.06;5099374;28;20025;-81
2023/10/22 10:16:14;;;;;;;0.10;0.10;;;;;;;15.85;70.16;100653.22;5096149;28;20024;-82
2023/10/22 10:21:40;;;;;;;0.10;0.10;;;;;;;15.77;68.94;100656.19;5129869;27;20128;-80
2023/10/22 10:24:26;;;;;;;0.68;0.68;;;;;;;15.82;68.73;100659.53;5121852;28;20137;-82
2023/10/22 10:30:15;;;;;;;0.10;0.10;;;;;;;15.92;68.15;100664.50;5129552;27;20394;-80
2023/10/22 10:32:43;;;;;;;0.30;0.30;;;;;;;16.00;67.52;100657.84;5120829;28;20056;-79
2023/10/22 10:35:09;;;;;;;0.10;0.10;;;;;;;16.23;68.55;100663.94;5122394;28;20024;-79
2023/10/22 10:37:35;;;;;;;0.08;0.08;;;;;;;16.42;68.46;100671.09;5124906;28;20025;-80
2023/10/22 10:40:04;;;;;;;0.00;0.00;;;;;;;16.33;64.70;100672.41;5121799;28;20038;-80
2023/10/22 10:45:07;;;;;;;0.10;0.10;;;;;;;16.54;64.44;100675.00;5088401;28;20406;-81
2023/10/22 10:47:36;;;;;;;0.08;0.08;;;;;;;16.60;64.47;100677.41;5073205;28;20021;-81
2023/10/22 10:57:58;;;;;;;0.05;0.05;;;;;;;16.86;61.44;100688.63;5118292;27;20463;-80
2023/10/22 11:00:30;;;;;;;0.10;0.10;;;;;;;17.02;60.39;100688.78;5123030;28;20038;-80
2023/10/22 11:03:00;;;;;;;0.10;0.10;;;;;;;17.21;61.12;100688.72;5119952;28;20035;-81
2023/10/22 11:05:42;;;;;;;0.10;0.10;;;;;;;17.47;60.45;100674.03;5105818;28;20029;-80
2023/10/22 11:08:29;;;;;;;0.10;0.10;;;;;;;17.71;60.07;100682.56;5102452;28;20020;-80
2023/10/22 11:10:55;;;;;;;0.10;0.10;;;;;;;17.84;59.06;100681.94;5108986;28;20084;-82
2023/10/22 11:13:27;;;;;;;0.52;0.52;;;;;;;17.95;59.08;100683.13;5109609;28;20463;-81
2023/10/22 11:16:02;;;;;;;0.05;0.05;;;;;;;17.82;57.66;100690.06;5109467;28;20070;-80
2023/10/22 11:18:28;;;;;;;0.20;0.20;;;;;;;17.78;57.79;100683.13;5108996;28;20084;-81
2023/10/22 11:20:57;;;;;;;0.20;0.20;;;;;;;17.72;56.79;100702.19;5106649;28;20036;-81
2023/10/22 11:23:24;;;;;;;0.10;0.10;;;;;;;17.59;55.81;100688.56;5112772;28;20024;-81
2023/10/22 11:25:50;;;;;;;0.00;0.00;;;;;;;17.53;56.74;100703.13;5109527;28;20044;-80
2023/10/22 11:28:17;;;;;;;0.00;0.00;;;;;;;17.51;55.85;100701.50;5107773;28;20032;-81
2023/10/22 11:30:43;;;;;;;0.10;0.10;;;;;;;17.60;56.66;100695.69;5109051;28;20033;-81
2023/10/22 11:33:11;;;;;;;0.10;0.10;;;;;;;17.65;56.96;100698.97;5108943;28;20187;-82
2023/10/22 11:35:38;;;;;;;0.10;0.10;;;;;;;17.66;57.05;100692.69;5108453;28;20032;-82
2023/10/22 11:38:08;;;;;;;0.00;0.00;;;;;;;17.47;57.38;100700.81;5107279;28;20217;-81
2023/10/22 11:40:36;;;;;;;0.05;0.05;;;;;;;17.30;57.07;100699.84;5107573;28;20013;-80
2023/10/22 11:43:13;;;;;;;0.10;0.10;;;;;;;17.05;57.40;100700.19;5109663;28;20036;-80
2023/10/22 11:45:51;;;;;;;0.22;0.22;;;;;;;17.12;57.01;100708.78;5111998;28;20052;-80
2023/10/22 11:48:21;;;;;;;0.10;0.10;;;;;;;17.10;58.13;100716.03;5101072;28;20395;-81